createdAt,value
2023-03-30T00:03:05.150Z,6.90
2023-03-30T00:08:08.647Z,6.80
2023-03-30T00:13:13.546Z,6.80
2023-03-30T00:18:16.966Z,6.70
2023-03-30T00:23:20.817Z,6.70
2023-03-30T00:28:25.561Z,6.50
2023-03-30T00:33:44.109Z,6.50
2023-03-30T00:38:49.507Z,6.50
2023-03-30T00:44:34.369Z,6.50
2023-03-30T00:49:37.685Z,6.40
2023-03-30T00:54:41.527Z,6.30
2023-03-30T00:59:45.492Z,6.20
2023-03-30T01:04:51.812Z,6.10
2023-03-30T01:09:55.311Z,6.10
2023-03-30T01:14:58.567Z,6.00
2023-03-30T01:20:27.045Z,6.10
2023-03-30T01:25:46.348Z,6.10
2023-03-30T01:31:20.226Z,6.10
2023-03-30T01:36:42.176Z,6.10
2023-03-30T01:42:21.315Z,6.00
2023-03-30T01:47:34.852Z,6.00
2023-03-30T01:52:54.065Z,5.90
2023-03-30T01:58:27.636Z,6.00
2023-03-30T02:03:34.274Z,6.00
2023-03-30T02:08:39.695Z,6.00
2023-03-30T02:13:44.277Z,6.00
2023-03-30T02:18:47.764Z,6.00
2023-03-30T02:23:53.904Z,6.00
2023-03-30T02:28:57.689Z,5.90
2023-03-30T02:34:15.066Z,5.90
2023-03-30T02:39:48.202Z,5.80
2023-03-30T02:45:11.672Z,5.90
2023-03-30T02:50:28.081Z,5.90
2023-03-30T02:55:37.556Z,5.90
2023-03-30T03:00:59.619Z,5.80
2023-03-30T03:06:05.079Z,5.80
2023-03-30T03:11:09.139Z,5.80
2023-03-30T03:16:12.993Z,5.70
2023-03-30T03:21:16.800Z,5.80
2023-03-30T03:26:20.548Z,5.60
2023-03-30T03:31:24.749Z,5.60
2023-03-30T03:36:28.329Z,5.60
2023-03-30T03:41:31.648Z,5.60
2023-03-30T03:46:35.654Z,5.60
2023-03-30T03:51:38.997Z,5.60
2023-03-30T03:56:42.771Z,5.50
2023-03-30T04:01:46.444Z,5.40
2023-03-30T04:06:49.711Z,5.30
2023-03-30T04:11:53.012Z,5.30
2023-03-30T04:16:58.349Z,5.30
2023-03-30T04:22:01.504Z,5.30
2023-03-30T04:27:04.822Z,5.30
2023-03-30T04:32:08.316Z,5.30
2023-03-30T04:37:11.822Z,5.30
2023-03-30T04:42:16.051Z,5.30
2023-03-30T04:47:19.282Z,5.30
2023-03-30T04:52:22.588Z,5.40
2023-03-30T04:57:25.900Z,5.30
2023-03-30T05:02:29.299Z,5.30
2023-03-30T05:07:32.564Z,5.30
2023-03-30T05:12:35.810Z,5.30
2023-03-30T05:17:40.394Z,5.30
2023-03-30T05:22:43.902Z,5.40
2023-03-30T05:27:47.146Z,5.40
2023-03-30T05:32:51.001Z,5.50
2023-03-30T05:37:55.717Z,5.60
2023-03-30T05:42:59.242Z,5.60
2023-03-30T05:48:02.442Z,5.70
2023-03-30T05:53:06.071Z,5.70
2023-03-30T05:58:09.633Z,5.70
2023-03-30T06:03:13.274Z,5.70
2023-03-30T06:08:16.691Z,5.80
2023-03-30T06:13:20.200Z,5.90
2023-03-30T06:18:24.453Z,6.10
2023-03-30T06:23:27.732Z,6.30
2023-03-30T06:28:31.531Z,6.40
2023-03-30T06:33:34.771Z,6.50
2023-03-30T06:38:38.262Z,6.50
2023-03-30T06:43:42.208Z,6.70
2023-03-30T06:48:45.606Z,6.80
2023-03-30T06:53:49.018Z,6.90
2023-03-30T06:58:53.074Z,6.90
2023-03-30T07:03:56.853Z,6.90
2023-03-30T07:09:00.401Z,7.00
2023-03-30T07:14:05.659Z,7.10
2023-03-30T07:19:09.351Z,7.10
2023-03-30T07:24:12.966Z,7.30
2023-03-30T07:29:16.732Z,7.30
2023-03-30T07:34:20.072Z,7.40
2023-03-30T07:39:23.228Z,7.60
2023-03-30T07:44:29.734Z,7.70
2023-03-30T07:49:33.625Z,8.00
2023-03-30T07:54:39.789Z,8.20
2023-03-30T07:59:43.065Z,8.20
2023-03-30T08:04:47.057Z,8.30
2023-03-30T08:09:50.430Z,8.50
2023-03-30T08:14:56.101Z,8.60
2023-03-30T08:19:59.790Z,8.90
2023-03-30T08:25:03.816Z,9.10
2023-03-30T08:30:07.861Z,9.30
2023-03-30T08:35:12.299Z,9.50
2023-03-30T08:40:19.049Z,9.70
2023-03-30T08:45:22.890Z,9.70
2023-03-30T08:50:35.953Z,9.60
2023-03-30T08:55:57.539Z,9.50
2023-03-30T09:01:10.164Z,9.40
2023-03-30T09:06:27.011Z,9.50
2023-03-30T09:11:36.948Z,9.60
2023-03-30T09:16:51.798Z,9.80
2023-03-30T09:21:58.156Z,10.10
2023-03-30T09:27:20.452Z,10.30
2023-03-30T09:32:32.019Z,10.70
2023-03-30T09:37:38.611Z,11.00
2023-03-30T09:42:53.981Z,11.20
2023-03-30T09:47:57.477Z,11.30
2023-03-30T09:53:19.171Z,11.20
2023-03-30T09:58:29.580Z,11.20
2023-03-30T10:03:33.298Z,11.30
2023-03-30T10:08:42.864Z,11.30
2023-03-30T10:13:46.814Z,11.10
2023-03-30T10:18:54.840Z,11.30
2023-03-30T10:24:26.061Z,11.40
2023-03-30T10:29:30.339Z,11.30
2023-03-30T10:34:52.740Z,11.30
2023-03-30T10:39:58.956Z,11.40
2023-03-30T10:45:06.506Z,11.80
2023-03-30T10:50:30.954Z,12.10
2023-03-30T10:56:02.036Z,11.90
2023-03-30T11:01:43.878Z,12.10
2023-03-30T11:06:47.517Z,12.40
2023-03-30T11:11:58.583Z,12.60
2023-03-30T11:17:09.543Z,12.70
2023-03-30T11:22:37.070Z,12.30
2023-03-30T11:27:50.713Z,12.30
2023-03-30T11:33:06.354Z,12.40
2023-03-30T11:38:12.141Z,12.60
2023-03-30T11:43:20.609Z,12.80
2023-03-30T11:48:44.034Z,12.80
2023-03-30T11:54:00.719Z,12.90
2023-03-30T11:59:17.814Z,12.80
2023-03-30T12:04:31.971Z,12.80
2023-03-30T12:09:46.945Z,12.90
2023-03-30T12:15:35.232Z,13.00
2023-03-30T12:20:42.794Z,13.10
2023-03-30T12:26:08.656Z,13.00
2023-03-30T12:31:13.056Z,13.00
2023-03-30T12:36:43.305Z,12.80
2023-03-30T12:41:51.438Z,12.70
2023-03-30T12:47:22.854Z,12.50
2023-03-30T12:52:39.339Z,12.60
2023-03-30T12:57:48.665Z,12.60
2023-03-30T13:03:07.483Z,12.70
2023-03-30T13:08:23.210Z,12.90
2023-03-30T13:13:45.100Z,13.00
2023-03-30T13:18:56.305Z,13.20
2023-03-30T13:24:23.006Z,13.10
2023-03-30T13:29:31.423Z,12.90
2023-03-30T13:35:14.949Z,12.90
2023-03-30T13:40:39.480Z,12.90
2023-03-30T13:46:16.929Z,12.90
2023-03-30T13:51:26.239Z,12.80
2023-03-30T13:56:41.696Z,12.80
2023-03-30T14:01:55.349Z,12.80
2023-03-30T14:06:58.956Z,12.80
2023-03-30T14:12:05.091Z,12.80
2023-03-30T14:17:28.641Z,12.70
2023-03-30T14:22:36.277Z,12.60
2023-03-30T14:27:40.416Z,12.50
2023-03-30T14:32:43.922Z,12.40
2023-03-30T14:37:52.198Z,12.50
2023-03-30T14:42:56.183Z,12.50
2023-03-30T14:47:59.343Z,12.50
2023-03-30T14:53:03.084Z,12.40
2023-03-30T14:58:07.049Z,12.40
2023-03-30T15:03:22.752Z,12.40
2023-03-30T15:08:47.849Z,12.40
2023-03-30T15:13:54.067Z,12.40
2023-03-30T15:19:07.132Z,12.60
2023-03-30T15:24:16.701Z,12.90
2023-03-30T15:29:22.032Z,13.10
2023-03-30T15:34:28.591Z,13.30
2023-03-30T15:39:36.822Z,13.30
2023-03-30T15:44:43.535Z,13.40
2023-03-30T15:49:50.583Z,13.50
2023-03-30T15:54:55.690Z,13.30
2023-03-30T16:00:02.294Z,13.20
2023-03-30T16:05:08.439Z,13.20
2023-03-30T16:10:16.757Z,13.10
2023-03-30T16:15:23.037Z,13.00
2023-03-30T16:20:30.048Z,12.90
2023-03-30T16:25:44.118Z,12.80
2023-03-30T16:30:51.182Z,12.70
2023-03-30T16:35:55.833Z,12.60
2023-03-30T16:41:02.386Z,12.50
2023-03-30T16:46:06.267Z,12.40
2023-03-30T16:51:13.204Z,12.30
2023-03-30T16:56:18.922Z,12.30
2023-03-30T17:01:22.422Z,12.30
2023-03-30T17:06:27.149Z,12.30
2023-03-30T17:11:32.015Z,12.30
2023-03-30T17:16:36.122Z,12.20
2023-03-30T17:21:44.188Z,12.00
2023-03-30T17:26:48.678Z,11.90
2023-03-30T17:31:53.699Z,11.70
2023-03-30T17:36:58.467Z,11.60
2023-03-30T17:42:04.103Z,11.50
2023-03-30T17:47:11.636Z,11.40
2023-03-30T17:52:16.323Z,11.40
2023-03-30T17:57:21.700Z,11.30
2023-03-30T18:02:28.097Z,11.20
2023-03-30T18:07:33.768Z,11.20
2023-03-30T18:12:44.726Z,11.10
2023-03-30T18:17:49.558Z,11.00
2023-03-30T18:22:54.470Z,11.00
2023-03-30T18:27:59.985Z,11.00
2023-03-30T18:33:04.316Z,11.00
2023-03-30T18:38:15.334Z,10.90
2023-03-30T18:43:22.800Z,10.80
2023-03-30T18:48:28.919Z,10.80
2023-03-30T18:53:35.120Z,10.70
2023-03-30T18:58:43.025Z,10.70
2023-03-30T19:03:49.140Z,10.70
2023-03-30T19:08:54.209Z,10.70
2023-03-30T19:14:02.351Z,10.70
2023-03-30T19:19:12.289Z,10.80
2023-03-30T19:24:20.866Z,10.80
2023-03-30T19:29:26.622Z,10.90
2023-03-30T19:34:31.023Z,10.90
2023-03-30T19:39:38.938Z,10.80
2023-03-30T19:44:45.152Z,10.80
2023-03-30T19:49:50.144Z,10.90
2023-03-30T19:54:55.274Z,10.90
2023-03-30T20:00:01.823Z,11.00
2023-03-30T20:05:08.439Z,10.90
2023-03-30T20:10:19.944Z,11.00
2023-03-30T20:15:27.034Z,10.90
2023-03-30T20:20:32.631Z,10.80
2023-03-30T20:25:35.782Z,10.70
2023-03-30T20:30:40.099Z,10.60
2023-03-30T20:35:44.172Z,10.60
2023-03-30T20:41:03.959Z,10.50
2023-03-30T20:46:10.669Z,10.40
2023-03-30T20:51:15.493Z,10.30
2023-03-30T20:56:18.963Z,10.20
2023-03-30T21:01:27.597Z,10.10
2023-03-30T21:06:32.236Z,10.10
2023-03-30T21:11:39.282Z,10.20
2023-03-30T21:16:42.599Z,10.20
2023-03-30T21:21:45.892Z,10.20
2023-03-30T21:26:49.869Z,10.20
2023-03-30T21:31:53.936Z,10.10
2023-03-30T21:36:58.197Z,10.10
2023-03-30T21:42:01.608Z,10.10
2023-03-30T21:47:05.113Z,10.10
2023-03-30T21:52:08.609Z,10.10
2023-03-30T21:57:12.242Z,10.10
2023-03-30T22:02:15.896Z,10.10
2023-03-30T22:07:19.118Z,10.10
2023-03-30T22:12:22.591Z,10.10
2023-03-30T22:17:35.365Z,10.10
2023-03-30T22:22:39.568Z,10.00
2023-03-30T22:27:44.990Z,10.00
2023-03-30T22:32:48.703Z,10.00
2023-03-30T22:37:52.155Z,10.00
2023-03-30T22:42:55.350Z,10.00
2023-03-30T22:47:59.847Z,10.00
2023-03-30T22:53:03.131Z,10.00
2023-03-30T22:58:06.654Z,10.10
2023-03-30T23:03:10.012Z,10.10
2023-03-30T23:08:13.367Z,10.10
2023-03-30T23:13:16.699Z,10.10
2023-03-30T23:18:19.895Z,10.20
2023-03-30T23:23:23.211Z,10.20
2023-03-30T23:28:26.680Z,10.10
2023-03-30T23:33:29.828Z,10.20
2023-03-30T23:38:33.194Z,10.20
2023-03-30T23:43:36.549Z,10.20
2023-03-30T23:48:40.254Z,10.20
2023-03-30T23:53:43.648Z,10.20
2023-03-30T23:58:47.460Z,10.10
